sensor_id;sensor_type;location;lat;lon;timestamp;pressure;altitude;pressure_sealevel;temperature;humidity
45467;BME280;31212;49.734;8.490;2022-11-03T00:02:25;100964.72;;;7.19;89.64
45467;BME280;31212;49.734;8.490;2022-11-03T00:04:52;100962.00;;;7.15;89.13
45467;BME280;31212;49.734;8.490;2022-11-03T00:07:20;100960.16;;;7.09;89.61
45467;BME280;31212;49.734;8.490;2022-11-03T00:09:47;100960.91;;;7.05;89.91
45467;BME280;31212;49.734;8.490;2022-11-03T00:12:14;100965.25;;;7.06;90.53
45467;BME280;31212;49.734;8.490;2022-11-03T00:14:40;100958.28;;;7.03;90.02
45467;BME280;31212;49.734;8.490;2022-11-03T00:17:07;100953.16;;;7.05;91.08
45467;BME280;31212;49.734;8.490;2022-11-03T00:19:33;100960.13;;;7.07;91.22
45467;BME280;31212;49.734;8.490;2022-11-03T00:22:00;100955.78;;;7.06;91.28
45467;BME280;31212;49.734;8.490;2022-11-03T00:24:28;100958.34;;;7.06;91.68
45467;BME280;31212;49.734;8.490;2022-11-03T00:26:54;100954.78;;;7.01;91.38
45467;BME280;31212;49.734;8.490;2022-11-03T00:29:21;100948.72;;;6.99;91.27
45467;BME280;31212;49.734;8.490;2022-11-03T00:31:49;100945.91;;;6.92;91.79
45467;BME280;31212;49.734;8.490;2022-11-03T00:34:15;100937.97;;;6.84;91.45
45467;BME280;31212;49.734;8.490;2022-11-03T00:36:43;100931.00;;;6.81;91.38
45467;BME280;31212;49.734;8.490;2022-11-03T00:39:10;100919.78;;;6.79;90.97
45467;BME280;31212;49.734;8.490;2022-11-03T00:41:39;100905.59;;;6.63;91.20
45467;BME280;31212;49.734;8.490;2022-11-03T00:44:06;100897.78;;;6.60;90.41
45467;BME280;31212;49.734;8.490;2022-11-03T00:46:34;100887.25;;;6.52;90.14
45467;BME280;31212;49.734;8.490;2022-11-03T00:49:02;100891.44;;;6.49;90.16
45467;BME280;31212;49.734;8.490;2022-11-03T00:51:29;100877.50;;;6.42;90.23
45467;BME280;31212;49.734;8.490;2022-11-03T00:53:57;100883.41;;;6.38;89.35
45467;BME280;31212;49.734;8.490;2022-11-03T00:56:25;100881.50;;;6.31;90.22
45467;BME280;31212;49.734;8.490;2022-11-03T00:58:55;100891.78;;;6.29;89.80
45467;BME280;31212;49.734;8.490;2022-11-03T01:01:24;100892.56;;;6.27;90.75
45467;BME280;31212;49.734;8.490;2022-11-03T01:03:52;100903.88;;;6.32;90.92
45467;BME280;31212;49.734;8.490;2022-11-03T01:06:39;100894.94;;;6.20;90.46
45467;BME280;31212;49.734;8.490;2022-11-03T01:09:19;100899.25;;;6.20;90.87
45467;BME280;31212;49.734;8.490;2022-11-03T01:11:52;100904.47;;;6.23;90.77
45467;BME280;31212;49.734;8.490;2022-11-03T01:14:20;100896.75;;;6.23;90.97
45467;BME280;31212;49.734;8.490;2022-11-03T01:16:47;100891.31;;;6.14;90.65
45467;BME280;31212;49.734;8.490;2022-11-03T01:19:14;100888.78;;;6.15;90.56
45467;BME280;31212;49.734;8.490;2022-11-03T01:21:40;100890.41;;;6.12;90.66
45467;BME280;31212;49.734;8.490;2022-11-03T01:24:08;100890.53;;;6.16;91.04
45467;BME280;31212;49.734;8.490;2022-11-03T01:26:34;100877.63;;;6.16;90.89
45467;BME280;31212;49.734;8.490;2022-11-03T01:29:01;100879.47;;;6.20;90.98
45467;BME280;31212;49.734;8.490;2022-11-03T01:31:29;100882.16;;;6.23;91.23
45467;BME280;31212;49.734;8.490;2022-11-03T01:33:56;100889.28;;;6.32;91.42
45467;BME280;31212;49.734;8.490;2022-11-03T01:36:23;100886.72;;;6.34;91.23
45467;BME280;31212;49.734;8.490;2022-11-03T01:38:49;100870.28;;;6.30;90.49
45467;BME280;31212;49.734;8.490;2022-11-03T01:41:19;100877.13;;;6.28;91.19
45467;BME280;31212;49.734;8.490;2022-11-03T01:43:48;100878.84;;;6.28;90.83
45467;BME280;31212;49.734;8.490;2022-11-03T01:46:17;100866.78;;;6.27;91.46
45467;BME280;31212;49.734;8.490;2022-11-03T01:48:49;100873.53;;;6.23;91.05
45467;BME280;31212;49.734;8.490;2022-11-03T01:51:19;100878.78;;;6.26;92.17
45467;BME280;31212;49.734;8.490;2022-11-03T01:53:50;100876.31;;;6.29;91.89
45467;BME280;31212;49.734;8.490;2022-11-03T01:56:18;100880.88;;;6.39;92.57
45467;BME280;31212;49.734;8.490;2022-11-03T01:58:48;100870.47;;;6.36;93.05
45467;BME280;31212;49.734;8.490;2022-11-03T02:01:15;100871.34;;;6.37;92.84
45467;BME280;31212;49.734;8.490;2022-11-03T02:03:46;100876.25;;;6.28;93.22
45467;BME280;31212;49.734;8.490;2022-11-03T02:06:17;100870.28;;;6.30;94.08
45467;BME280;31212;49.734;8.490;2022-11-03T02:08:48;100873.75;;;6.31;94.51
45467;BME280;31212;49.734;8.490;2022-11-03T02:11:17;100863.69;;;6.40;93.88
45467;BME280;31212;49.734;8.490;2022-11-03T02:14:00;100850.59;;;6.32;94.25
45467;BME280;31212;49.734;8.490;2022-11-03T02:16:30;100851.75;;;6.44;94.13
45467;BME280;31212;49.734;8.490;2022-11-03T02:18:59;100852.00;;;6.53;94.75
45467;BME280;31212;49.734;8.490;2022-11-03T02:21:30;100849.44;;;6.54;94.00
45467;BME280;31212;49.734;8.490;2022-11-03T02:24:08;100835.69;;;6.54;94.46
45467;BME280;31212;49.734;8.490;2022-11-03T02:26:40;100823.47;;;6.47;94.21
45467;BME280;31212;49.734;8.490;2022-11-03T02:29:09;100819.88;;;6.40;94.11
45467;BME280;31212;49.734;8.490;2022-11-03T02:31:40;100804.00;;;6.26;93.14
45467;BME280;31212;49.734;8.490;2022-11-03T02:34:14;100800.19;;;6.12;93.41
45467;BME280;31212;49.734;8.490;2022-11-03T02:36:48;100794.75;;;6.01;92.67
45467;BME280;31212;49.734;8.490;2022-11-03T02:39:20;100794.63;;;5.98;92.42
45467;BME280;31212;49.734;8.490;2022-11-03T02:41:52;100788.25;;;5.85;92.25
45467;BME280;31212;49.734;8.490;2022-11-03T02:44:21;100792.69;;;5.90;92.89
45467;BME280;31212;49.734;8.490;2022-11-03T02:46:54;100782.56;;;5.97;92.33
45467;BME280;31212;49.734;8.490;2022-11-03T02:49:23;100777.53;;;6.00;92.68
45467;BME280;31212;49.734;8.490;2022-11-03T02:51:58;100774.16;;;6.02;92.19
45467;BME280;31212;49.734;8.490;2022-11-03T02:54:27;100779.34;;;6.04;92.04
45467;BME280;31212;49.734;8.490;2022-11-03T02:57:01;100777.78;;;6.09;92.45
45467;BME280;31212;49.734;8.490;2022-11-03T02:59:33;100776.97;;;6.10;92.46
45467;BME280;31212;49.734;8.490;2022-11-03T03:02:06;100773.59;;;6.13;92.91
45467;BME280;31212;49.734;8.490;2022-11-03T03:04:36;100763.72;;;5.98;92.30
45467;BME280;31212;49.734;8.490;2022-11-03T03:07:05;100750.00;;;5.99;92.15
45467;BME280;31212;49.734;8.490;2022-11-03T03:09:42;100745.47;;;5.92;92.08
45467;BME280;31212;49.734;8.490;2022-11-03T03:12:15;100752.22;;;5.86;91.85
45467;BME280;31212;49.734;8.490;2022-11-03T03:14:44;100749.38;;;5.77;92.78
45467;BME280;31212;49.734;8.490;2022-11-03T03:17:14;100752.91;;;5.81;92.58
45467;BME280;31212;49.734;8.490;2022-11-03T03:19:48;100756.28;;;5.78;93.25
45467;BME280;31212;49.734;8.490;2022-11-03T03:22:22;100758.16;;;5.84;93.74
45467;BME280;31212;49.734;8.490;2022-11-03T03:24:52;100760.00;;;5.89;94.23
45467;BME280;31212;49.734;8.490;2022-11-03T03:27:27;100755.28;;;6.03;94.51
45467;BME280;31212;49.734;8.490;2022-11-03T03:29:56;100750.25;;;6.08;94.56
45467;BME280;31212;49.734;8.490;2022-11-03T03:32:27;100743.78;;;5.92;94.44
45467;BME280;31212;49.734;8.490;2022-11-03T03:34:57;100743.72;;;5.90;94.99
45467;BME280;31212;49.734;8.490;2022-11-03T03:37:25;100744.56;;;5.89;95.02
45467;BME280;31212;49.734;8.490;2022-11-03T03:39:54;100740.09;;;5.84;95.60
45467;BME280;31212;49.734;8.490;2022-11-03T03:42:27;100749.81;;;5.93;95.33
45467;BME280;31212;49.734;8.490;2022-11-03T03:44:54;100739.53;;;5.94;95.85
45467;BME280;31212;49.734;8.490;2022-11-03T03:47:26;100742.13;;;5.94;95.21
45467;BME280;31212;49.734;8.490;2022-11-03T03:49:53;100741.94;;;5.88;95.35
45467;BME280;31212;49.734;8.490;2022-11-03T03:52:20;100732.28;;;5.79;95.22
45467;BME280;31212;49.734;8.490;2022-11-03T03:54:47;100729.66;;;5.78;95.52
45467;BME280;31212;49.734;8.490;2022-11-03T03:57:15;100728.84;;;5.80;95.14
45467;BME280;31212;49.734;8.490;2022-11-03T03:59:44;100728.06;;;5.83;94.78
45467;BME280;31212;49.734;8.490;2022-11-03T04:02:11;100727.06;;;5.78;95.28
45467;BME280;31212;49.734;8.490;2022-11-03T04:04:38;100725.19;;;5.72;95.22
45467;BME280;31212;49.734;8.490;2022-11-03T04:07:05;100726.34;;;5.82;95.13
45467;BME280;31212;49.734;8.490;2022-11-03T04:09:49;100729.72;;;5.81;95.26
45467;BME280;31212;49.734;8.490;2022-11-03T04:12:16;100722.81;;;5.80;94.72
45467;BME280;31212;49.734;8.490;2022-11-03T04:15:02;100716.63;;;5.73;94.99
45467;BME280;31212;49.734;8.490;2022-11-03T04:17:47;100713.03;;;5.68;94.69
45467;BME280;31212;49.734;8.490;2022-11-03T04:20:31;100715.63;;;5.68;94.50
45467;BME280;31212;49.734;8.490;2022-11-03T04:23:15;100700.91;;;5.64;94.64
45467;BME280;31212;49.734;8.490;2022-11-03T04:25:46;100703.59;;;5.67;94.44
45467;BME280;31212;49.734;8.490;2022-11-03T04:28:14;100694.72;;;5.57;93.82
45467;BME280;31212;49.734;8.490;2022-11-03T04:30:42;100695.41;;;5.51;94.07
45467;BME280;31212;49.734;8.490;2022-11-03T04:33:11;100688.47;;;5.49;94.11
45467;BME280;31212;49.734;8.490;2022-11-03T04:35:39;100687.28;;;5.36;93.36
45467;BME280;31212;49.734;8.490;2022-11-03T04:38:19;100685.31;;;5.29;94.12
45467;BME280;31212;49.734;8.490;2022-11-03T04:40:48;100681.94;;;5.30;93.67
45467;BME280;31212;49.734;8.490;2022-11-03T04:43:17;100674.03;;;5.23;94.00
45467;BME280;31212;49.734;8.490;2022-11-03T04:45:46;100673.84;;;5.17;94.23
45467;BME280;31212;49.734;8.490;2022-11-03T04:48:14;100679.00;;;5.17;94.43
45467;BME280;31212;49.734;8.490;2022-11-03T04:50:42;100677.50;;;5.24;94.61
45467;BME280;31212;49.734;8.490;2022-11-03T04:53:12;100675.03;;;5.29;94.32
45467;BME280;31212;49.734;8.490;2022-11-03T04:55:40;100680.09;;;5.26;94.48
45467;BME280;31212;49.734;8.490;2022-11-03T04:58:15;100685.13;;;5.21;94.45
45467;BME280;31212;49.734;8.490;2022-11-03T05:00:42;100677.25;;;5.16;94.40
45467;BME280;31212;49.734;8.490;2022-11-03T05:03:12;100682.41;;;5.16;94.57
45467;BME280;31212;49.734;8.490;2022-11-03T05:05:40;100680.75;;;5.18;94.73
45467;BME280;31212;49.734;8.490;2022-11-03T05:08:07;100669.94;;;5.01;94.61
45467;BME280;31212;49.734;8.490;2022-11-03T05:10:34;100672.50;;;5.00;94.17
45467;BME280;31212;49.734;8.490;2022-11-03T05:13:01;100663.16;;;5.03;94.45
45467;BME280;31212;49.734;8.490;2022-11-03T05:15:31;100665.03;;;5.09;94.76
45467;BME280;31212;49.734;8.490;2022-11-03T05:18:02;100655.66;;;5.11;94.11
45467;BME280;31212;49.734;8.490;2022-11-03T05:20:35;100655.50;;;5.05;94.37
45467;BME280;31212;49.734;8.490;2022-11-03T05:23:03;100649.41;;;5.03;94.02
45467;BME280;31212;49.734;8.490;2022-11-03T05:25:36;100635.72;;;5.04;93.86
45467;BME280;31212;49.734;8.490;2022-11-03T05:28:12;100630.69;;;5.09;93.88
45467;BME280;31212;49.734;8.490;2022-11-03T05:30:41;100627.06;;;5.02;93.59
45467;BME280;31212;49.734;8.490;2022-11-03T05:33:21;100634.94;;;5.07;93.85
45467;BME280;31212;49.734;8.490;2022-11-03T05:35:49;100626.25;;;5.03;93.52
45467;BME280;31212;49.734;8.490;2022-11-03T05:38:18;100623.72;;;5.04;93.39
45467;BME280;31212;49.734;8.490;2022-11-03T05:40:45;100619.22;;;4.97;93.27
45467;BME280;31212;49.734;8.490;2022-11-03T05:43:13;100623.75;;;5.06;93.42
45467;BME280;31212;49.734;8.490;2022-11-03T05:45:40;100612.97;;;4.87;93.62
45467;BME280;31212;49.734;8.490;2022-11-03T05:48:13;100606.88;;;4.85;93.71
45467;BME280;31212;49.734;8.490;2022-11-03T05:50:42;100609.94;;;4.74;93.42
45467;BME280;31212;49.734;8.490;2022-11-03T05:53:21;100610.56;;;4.65;93.85
45467;BME280;31212;49.734;8.490;2022-11-03T05:55:50;100602.03;;;4.66;93.60
45467;BME280;31212;49.734;8.490;2022-11-03T05:58:21;100602.09;;;4.69;93.64
45467;BME280;31212;49.734;8.490;2022-11-03T06:00:49;100588.50;;;4.73;93.64
45467;BME280;31212;49.734;8.490;2022-11-03T06:03:20;100595.09;;;4.63;93.41
45467;BME280;31212;49.734;8.490;2022-11-03T06:05:48;100576.94;;;4.59;93.34
45467;BME280;31212;49.734;8.490;2022-11-03T06:08:19;100571.66;;;4.54;93.43
45467;BME280;31212;49.734;8.490;2022-11-03T06:10:48;100563.00;;;4.52;93.21
45467;BME280;31212;49.734;8.490;2022-11-03T06:13:18;100563.19;;;4.57;93.35
45467;BME280;31212;49.734;8.490;2022-11-03T06:15:46;100565.16;;;4.67;93.09
45467;BME280;31212;49.734;8.490;2022-11-03T06:18:20;100563.31;;;4.61;93.20
45467;BME280;31212;49.734;8.490;2022-11-03T06:20:50;100562.41;;;4.59;93.14
45467;BME280;31212;49.734;8.490;2022-11-03T06:23:19;100562.41;;;4.59;93.13
45467;BME280;31212;49.734;8.490;2022-11-03T06:25:47;100568.72;;;4.70;93.30
45467;BME280;31212;49.734;8.490;2022-11-03T06:28:17;100569.81;;;4.79;93.45
45467;BME280;31212;49.734;8.490;2022-11-03T06:30:46;100568.28;;;4.85;93.57
45467;BME280;31212;49.734;8.490;2022-11-03T06:33:17;100566.81;;;4.94;93.58
45467;BME280;31212;49.734;8.490;2022-11-03T06:35:46;100570.38;;;4.99;93.41
45467;BME280;31212;49.734;8.490;2022-11-03T06:38:16;100566.16;;;5.01;92.88
45467;BME280;31212;49.734;8.490;2022-11-03T06:40:45;100560.72;;;4.90;92.34
45467;BME280;31212;49.734;8.490;2022-11-03T06:43:18;100552.13;;;4.89;92.19
45467;BME280;31212;49.734;8.490;2022-11-03T06:45:50;100540.16;;;4.90;92.24
45467;BME280;31212;49.734;8.490;2022-11-03T06:48:25;100539.69;;;5.05;91.74
45467;BME280;31212;49.734;8.490;2022-11-03T06:50:54;100535.69;;;5.16;91.76
45467;BME280;31212;49.734;8.490;2022-11-03T06:53:24;100540.38;;;5.31;91.85
45467;BME280;31212;49.734;8.490;2022-11-03T06:55:53;100538.28;;;5.48;91.85
45467;BME280;31212;49.734;8.490;2022-11-03T06:58:29;100532.72;;;5.66;91.44
45467;BME280;31212;49.734;8.490;2022-11-03T07:01:00;100529.59;;;5.80;91.00
45467;BME280;31212;49.734;8.490;2022-11-03T07:03:28;100524.03;;;5.98;90.88
45467;BME280;31212;49.734;8.490;2022-11-03T07:05:59;100523.41;;;6.06;90.66
45467;BME280;31212;49.734;8.490;2022-11-03T07:08:28;100507.59;;;6.29;89.89
45467;BME280;31212;49.734;8.490;2022-11-03T07:11:00;100503.59;;;6.44;89.89
45467;BME280;31212;49.734;8.490;2022-11-03T07:13:30;100494.59;;;6.64;89.54
45467;BME280;31212;49.734;8.490;2022-11-03T07:15:57;100481.03;;;6.76;88.96
45467;BME280;31212;49.734;8.490;2022-11-03T07:18:27;100473.44;;;6.84;89.09
45467;BME280;31212;49.734;8.490;2022-11-03T07:20:55;100468.19;;;6.78;88.32
45467;BME280;31212;49.734;8.490;2022-11-03T07:23:24;100453.59;;;6.80;87.64
45467;BME280;31212;49.734;8.490;2022-11-03T07:25:53;100444.25;;;6.86;87.40
45467;BME280;31212;49.734;8.490;2022-11-03T07:28:25;100441.78;;;6.91;86.87
45467;BME280;31212;49.734;8.490;2022-11-03T07:30:54;100437.75;;;7.07;86.96
45467;BME280;31212;49.734;8.490;2022-11-03T07:33:23;100427.59;;;7.18;87.26
45467;BME280;31212;49.734;8.490;2022-11-03T07:35:52;100424.28;;;7.23;86.36
45467;BME280;31212;49.734;8.490;2022-11-03T07:38:23;100417.69;;;7.43;86.06
45467;BME280;31212;49.734;8.490;2022-11-03T07:40:51;100401.69;;;7.65;85.47
45467;BME280;31212;49.734;8.490;2022-11-03T07:43:23;100407.16;;;7.87;85.67
45467;BME280;31212;49.734;8.490;2022-11-03T07:45:51;100384.25;;;8.13;84.77
45467;BME280;31212;49.734;8.490;2022-11-03T07:48:21;100368.94;;;8.32;83.73
45467;BME280;31212;49.734;8.490;2022-11-03T07:50:50;100338.00;;;8.39;83.29
45467;BME280;31212;49.734;8.490;2022-11-03T07:53:20;100333.81;;;8.48;82.95
45467;BME280;31212;49.734;8.490;2022-11-03T07:55:52;100335.78;;;8.73;82.23
45467;BME280;31212;49.734;8.490;2022-11-03T07:58:32;100304.25;;;9.22;81.00
45467;BME280;31212;49.734;8.490;2022-11-03T08:01:00;100264.91;;;10.15;79.53
45467;BME280;31212;49.734;8.490;2022-11-03T08:03:38;100200.13;;;10.83;77.14
45467;BME280;31212;49.734;8.490;2022-11-03T08:06:06;100110.84;;;11.13;75.10
45467;BME280;31212;49.734;8.490;2022-11-03T08:08:33;100069.22;;;11.30;73.99
45467;BME280;31212;49.734;8.490;2022-11-03T08:10:59;100051.94;;;11.20;73.52
45467;BME280;31212;49.734;8.490;2022-11-03T08:13:27;100060.53;;;11.34;73.08
45467;BME280;31212;49.734;8.490;2022-11-03T08:15:55;100033.50;;;11.60;72.85
45467;BME280;31212;49.734;8.490;2022-11-03T08:18:21;100006.50;;;11.76;71.70
45467;BME280;31212;49.734;8.490;2022-11-03T08:20:48;99986.66;;;11.66;71.12
45467;BME280;31212;49.734;8.490;2022-11-03T08:23:14;99998.25;;;11.16;71.32
45467;BME280;31212;49.734;8.490;2022-11-03T08:25:41;100063.31;;;10.96;72.76
45467;BME280;31212;49.734;8.490;2022-11-03T08:28:08;100065.09;;;10.84;73.31
45467;BME280;31212;49.734;8.490;2022-11-03T08:30:36;100091.00;;;10.98;74.10
45467;BME280;31212;49.734;8.490;2022-11-03T08:33:02;100079.69;;;11.13;73.52
45467;BME280;31212;49.734;8.490;2022-11-03T08:35:29;100042.00;;;11.84;71.88
45467;BME280;31212;49.734;8.490;2022-11-03T08:37:56;99987.44;;;12.65;70.44
45467;BME280;31212;49.734;8.490;2022-11-03T08:40:22;99901.91;;;12.96;67.93
45467;BME280;31212;49.734;8.490;2022-11-03T08:42:49;99895.81;;;13.53;66.80
45467;BME280;31212;49.734;8.490;2022-11-03T08:45:15;99871.19;;;14.15;65.39
45467;BME280;31212;49.734;8.490;2022-11-03T08:47:43;99815.56;;;14.51;63.71
45467;BME280;31212;49.734;8.490;2022-11-03T08:50:10;99816.50;;;14.87;62.84
45467;BME280;31212;49.734;8.490;2022-11-03T08:52:37;99790.16;;;15.31;61.93
45467;BME280;31212;49.734;8.490;2022-11-03T08:55:04;99754.22;;;15.38;60.81
45467;BME280;31212;49.734;8.490;2022-11-03T08:57:31;99743.28;;;14.90;60.74
45467;BME280;31212;49.734;8.490;2022-11-03T08:59:57;99805.94;;;14.92;62.09
45467;BME280;31212;49.734;8.490;2022-11-03T09:02:24;99819.59;;;15.03;62.04
45467;BME280;31212;49.734;8.490;2022-11-03T09:04:52;99851.19;;;14.56;62.90
45467;BME280;31212;49.734;8.490;2022-11-03T09:07:18;99881.50;;;14.21;63.64
45467;BME280;31212;49.734;8.490;2022-11-03T09:09:44;99913.88;;;14.12;64.60
45467;BME280;31212;49.734;8.490;2022-11-03T09:12:11;99946.34;;;14.43;64.67
45467;BME280;31212;49.734;8.490;2022-11-03T09:14:37;99940.72;;;14.19;64.78
45467;BME280;31212;49.734;8.490;2022-11-03T09:17:04;99987.44;;;13.86;66.14
45467;BME280;31212;49.734;8.490;2022-11-03T09:19:31;99993.84;;;13.67;66.86
45467;BME280;31212;49.734;8.490;2022-11-03T09:21:59;99981.28;;;13.34;67.19
45467;BME280;31212;49.734;8.490;2022-11-03T09:24:26;99998.22;;;13.04;67.56
45467;BME280;31212;49.734;8.490;2022-11-03T09:26:52;100064.97;;;13.14;69.22
45467;BME280;31212;49.734;8.490;2022-11-03T09:29:19;100087.09;;;12.82;70.03
45467;BME280;31212;49.734;8.490;2022-11-03T09:31:48;100097.44;;;12.87;70.30
45467;BME280;31212;49.734;8.490;2022-11-03T09:34:15;100095.69;;;12.87;70.40
45467;BME280;31212;49.734;8.490;2022-11-03T09:36:41;100055.81;;;12.81;69.93
45467;BME280;31212;49.734;8.490;2022-11-03T09:39:09;100062.81;;;12.78;70.03
45467;BME280;31212;49.734;8.490;2022-11-03T09:41:36;100054.34;;;12.59;70.37
45467;BME280;31212;49.734;8.490;2022-11-03T09:44:03;100050.94;;;12.50;70.28
45467;BME280;31212;49.734;8.490;2022-11-03T09:46:29;100040.63;;;12.39;70.54
45467;BME280;31212;49.734;8.490;2022-11-03T09:48:57;100070.16;;;12.39;71.25
45467;BME280;31212;49.734;8.490;2022-11-03T09:51:25;100048.47;;;12.40;71.25
45467;BME280;31212;49.734;8.490;2022-11-03T09:53:52;100070.28;;;12.24;72.10
45467;BME280;31212;49.734;8.490;2022-11-03T09:56:23;100080.78;;;12.18;72.50
45467;BME280;31212;49.734;8.490;2022-11-03T09:58:50;100148.56;;;11.99;74.15
45467;BME280;31212;49.734;8.490;2022-11-03T10:01:17;100118.03;;;12.21;73.50
45467;BME280;31212;49.734;8.490;2022-11-03T10:03:43;100089.28;;;12.35;73.34
45467;BME280;31212;49.734;8.490;2022-11-03T10:06:10;100081.16;;;12.68;73.15
45467;BME280;31212;49.734;8.490;2022-11-03T10:08:37;100007.25;;;12.76;71.69
45467;BME280;31212;49.734;8.490;2022-11-03T10:11:06;99994.38;;;13.28;71.09
45467;BME280;31212;49.734;8.490;2022-11-03T10:13:37;100003.41;;;13.66;70.63
45467;BME280;31212;49.734;8.490;2022-11-03T10:16:06;99945.72;;;14.30;68.58
45467;BME280;31212;49.734;8.490;2022-11-03T10:18:34;99885.81;;;13.24;68.81
45467;BME280;31212;49.734;8.490;2022-11-03T10:21:04;100005.72;;;13.27;71.10
45467;BME280;31212;49.734;8.490;2022-11-03T10:23:31;99974.50;;;13.21;70.85
45467;BME280;31212;49.734;8.490;2022-11-03T10:26:07;99951.81;;;13.84;69.64
45467;BME280;31212;49.734;8.490;2022-11-03T10:28:36;99927.69;;;14.18;68.92
45467;BME280;31212;49.734;8.490;2022-11-03T10:31:04;99844.09;;;14.63;67.13
45467;BME280;31212;49.734;8.490;2022-11-03T10:33:34;99810.00;;;15.38;65.36
45467;BME280;31212;49.734;8.490;2022-11-03T10:36:02;99718.59;;;15.65;63.43
45467;BME280;31212;49.734;8.490;2022-11-03T10:38:31;99703.16;;;15.87;62.63
45467;BME280;31212;49.734;8.490;2022-11-03T10:41:11;99690.56;;;15.39;62.86
45467;BME280;31212;49.734;8.490;2022-11-03T10:43:41;99736.06;;;15.31;63.50
45467;BME280;31212;49.734;8.490;2022-11-03T10:46:14;99773.44;;;15.04;64.82
45467;BME280;31212;49.734;8.490;2022-11-03T10:48:41;99811.91;;;14.59;65.72
45467;BME280;31212;49.734;8.490;2022-11-03T10:51:10;99843.09;;;14.26;66.87
45467;BME280;31212;49.734;8.490;2022-11-03T10:53:37;99866.28;;;14.00;67.93
45467;BME280;31212;49.734;8.490;2022-11-03T10:56:04;99879.63;;;13.83;68.70
45467;BME280;31212;49.734;8.490;2022-11-03T10:58:31;99843.84;;;13.89;68.12
45467;BME280;31212;49.734;8.490;2022-11-03T11:01:00;99832.41;;;13.96;68.20
45467;BME280;31212;49.734;8.490;2022-11-03T11:03:26;99815.13;;;13.91;68.08
45467;BME280;31212;49.734;8.490;2022-11-03T11:05:53;99831.75;;;13.85;68.57
45467;BME280;31212;49.734;8.490;2022-11-03T11:08:22;99811.06;;;13.76;68.27
45467;BME280;31212;49.734;8.490;2022-11-03T11:10:49;99820.75;;;13.69;68.57
45467;BME280;31212;49.734;8.490;2022-11-03T11:13:25;99842.53;;;13.67;69.28
45467;BME280;31212;49.734;8.490;2022-11-03T11:15:53;99858.41;;;13.54;69.88
45467;BME280;31212;49.734;8.490;2022-11-03T11:22:20;99895.00;;;13.51;70.94
45467;BME280;31212;49.734;8.490;2022-11-03T11:24:55;99921.63;;;13.69;71.23
45467;BME280;31212;49.734;8.490;2022-11-03T11:33:30;99873.91;;;14.09;71.09
45467;BME280;31212;49.734;8.490;2022-11-03T11:38:56;99870.94;;;13.84;71.04
45467;BME280;31212;49.734;8.490;2022-11-03T11:44:45;99892.16;;;14.10;71.01
45467;BME280;31212;49.734;8.490;2022-11-03T11:47:23;99878.88;;;14.23;70.55
45467;BME280;31212;49.734;8.490;2022-11-03T11:50:10;99860.66;;;14.18;70.60
45467;BME280;31212;49.734;8.490;2022-11-03T11:52:41;99885.81;;;14.22;71.05
45467;BME280;31212;49.734;8.490;2022-11-03T11:55:16;99876.44;;;14.13;70.55
45467;BME280;31212;49.734;8.490;2022-11-03T11:57:43;99858.47;;;13.98;70.90
45467;BME280;31212;49.734;8.490;2022-11-03T12:00:19;99866.41;;;13.92;71.18
45467;BME280;31212;49.734;8.490;2022-11-03T12:02:47;99832.75;;;13.79;70.79
45467;BME280;31212;49.734;8.490;2022-11-03T12:05:22;99809.50;;;13.66;70.48
45467;BME280;31212;49.734;8.490;2022-11-03T12:07:51;99741.81;;;13.61;69.58
45467;BME280;31212;49.734;8.490;2022-11-03T12:10:21;99754.28;;;13.45;70.03
45467;BME280;31212;49.734;8.490;2022-11-03T12:12:48;99778.09;;;13.23;70.86
45467;BME280;31212;49.734;8.490;2022-11-03T12:15:47;99776.50;;;13.16;71.24
45467;BME280;31212;49.734;8.490;2022-11-03T12:18:34;99782.56;;;13.17;71.10
45467;BME280;31212;49.734;8.490;2022-11-03T12:21:03;99786.00;;;13.20;71.25
45467;BME280;31212;49.734;8.490;2022-11-03T12:23:41;99784.16;;;13.25;71.72
45467;BME280;31212;49.734;8.490;2022-11-03T12:26:17;99782.44;;;13.24;71.59
45467;BME280;31212;49.734;8.490;2022-11-03T12:28:44;99768.44;;;13.30;71.20
45467;BME280;31212;49.734;8.490;2022-11-03T12:31:10;99750.03;;;13.39;70.95
45467;BME280;31212;49.734;8.490;2022-11-03T12:33:37;99737.56;;;13.55;70.69
45467;BME280;31212;49.734;8.490;2022-11-03T12:36:04;99729.50;;;13.68;70.19
45467;BME280;31212;49.734;8.490;2022-11-03T12:38:31;99702.19;;;13.84;69.62
45467;BME280;31212;49.734;8.490;2022-11-03T12:40:58;99690.34;;;14.08;69.22
45467;BME280;31212;49.734;8.490;2022-11-03T12:43:47;99674.34;;;14.24;68.85
45467;BME280;31212;49.734;8.490;2022-11-03T12:46:14;99666.47;;;14.25;68.51
45467;BME280;31212;49.734;8.490;2022-11-03T12:48:41;99658.56;;;14.28;68.52
45467;BME280;31212;49.734;8.490;2022-11-03T12:51:10;99628.34;;;14.18;68.39
45467;BME280;31212;49.734;8.490;2022-11-03T12:53:37;99603.03;;;14.22;68.00
45467;BME280;31212;49.734;8.490;2022-11-03T12:56:04;99605.06;;;14.09;67.97
45467;BME280;31212;49.734;8.490;2022-11-03T12:58:30;99600.00;;;14.03;67.81
45467;BME280;31212;49.734;8.490;2022-11-03T13:00:58;99608.00;;;13.95;68.00
45467;BME280;31212;49.734;8.490;2022-11-03T13:03:25;99610.53;;;13.98;67.99
45467;BME280;31212;49.734;8.490;2022-11-03T13:05:52;99624.88;;;13.80;68.45
45467;BME280;31212;49.734;8.490;2022-11-03T13:08:19;99651.31;;;14.04;68.59
45467;BME280;31212;49.734;8.490;2022-11-03T13:10:45;99644.28;;;14.06;69.05
45467;BME280;31212;49.734;8.490;2022-11-03T13:13:12;99642.59;;;14.03;68.99
45467;BME280;31212;49.734;8.490;2022-11-03T13:15:39;99620.19;;;13.96;68.71
45467;BME280;31212;49.734;8.490;2022-11-03T13:18:07;99627.69;;;13.71;69.46
45467;BME280;31212;49.734;8.490;2022-11-03T13:20:34;99608.56;;;13.72;69.21
45467;BME280;31212;49.734;8.490;2022-11-03T13:23:01;99603.25;;;13.75;69.44
45467;BME280;31212;49.734;8.490;2022-11-03T13:25:27;99607.81;;;13.65;69.69
45467;BME280;31212;49.734;8.490;2022-11-03T13:27:54;99627.91;;;13.61;70.49
45467;BME280;31212;49.734;8.490;2022-11-03T13:30:22;99634.03;;;13.60;70.86